sensor_id;sensor_type;location;lat;lon;timestamp;temperature;humidity
28725;DHT22;43472;48.980;9.646;2023-11-21T00:01:08;10.10;99.90
28725;DHT22;43472;48.980;9.646;2023-11-21T00:06:10;9.90;99.90
28725;DHT22;43472;48.980;9.646;2023-11-21T00:11:12;10.00;99.90
28725;DHT22;43472;48.980;9.646;2023-11-21T00:16:14;10.10;99.90
28725;DHT22;43472;48.980;9.646;2023-11-21T00:26:18;9.90;99.90
28725;DHT22;43472;48.980;9.646;2023-11-21T00:36:22;10.00;99.90
28725;DHT22;43472;48.980;9.646;2023-11-21T00:41:24;10.00;99.90
28725;DHT22;43472;48.980;9.646;2023-11-21T00:46:29;10.00;99.90
28725;DHT22;43472;48.980;9.646;2023-11-21T00:51:31;12.40;99.90
28725;DHT22;43472;48.980;9.646;2023-11-21T00:56:33;10.00;99.90
28725;DHT22;43472;48.980;9.646;2023-11-21T01:01:35;12.20;99.90
28725;DHT22;43472;48.980;9.646;2023-11-21T01:06:37;9.90;99.90
28725;DHT22;43472;48.980;9.646;2023-11-21T01:11:39;10.10;99.90
28725;DHT22;43472;48.980;9.646;2023-11-21T01:16:41;10.00;99.90
28725;DHT22;43472;48.980;9.646;2023-11-21T01:21:43;10.00;99.90
28725;DHT22;43472;48.980;9.646;2023-11-21T01:31:48;10.00;99.90
28725;DHT22;43472;48.980;9.646;2023-11-21T01:36:50;10.00;99.90
28725;DHT22;43472;48.980;9.646;2023-11-21T01:41:51;12.80;99.90
28725;DHT22;43472;48.980;9.646;2023-11-21T01:46:55;12.60;99.90
28725;DHT22;43472;48.980;9.646;2023-11-21T01:51:59;10.10;99.90
28725;DHT22;43472;48.980;9.646;2023-11-21T01:57:01;10.80;99.90
28725;DHT22;43472;48.980;9.646;2023-11-21T02:02:05;10.00;99.90
28725;DHT22;43472;48.980;9.646;2023-11-21T02:07:08;10.10;99.90
28725;DHT22;43472;48.980;9.646;2023-11-21T02:12:10;10.10;99.90
28725;DHT22;43472;48.980;9.646;2023-11-21T02:17:12;10.00;99.90
28725;DHT22;43472;48.980;9.646;2023-11-21T02:27:18;10.10;99.90
28725;DHT22;43472;48.980;9.646;2023-11-21T02:32:23;10.60;99.90
28725;DHT22;43472;48.980;9.646;2023-11-21T02:37:27;11.10;99.90
28725;DHT22;43472;48.980;9.646;2023-11-21T02:42:29;10.10;99.90
28725;DHT22;43472;48.980;9.646;2023-11-21T02:47:31;10.10;99.90
28725;DHT22;43472;48.980;9.646;2023-11-21T02:52:33;10.00;99.90
28725;DHT22;43472;48.980;9.646;2023-11-21T02:57:35;10.10;99.90
28725;DHT22;43472;48.980;9.646;2023-11-21T03:07:41;10.20;99.90
28725;DHT22;43472;48.980;9.646;2023-11-21T03:12:43;10.20;99.90
28725;DHT22;43472;48.980;9.646;2023-11-21T03:17:46;10.30;99.90
28725;DHT22;43472;48.980;9.646;2023-11-21T03:27:52;10.20;99.90
28725;DHT22;43472;48.980;9.646;2023-11-21T03:32:54;10.20;99.90
28725;DHT22;43472;48.980;9.646;2023-11-21T03:37:56;10.90;99.90
28725;DHT22;43472;48.980;9.646;2023-11-21T03:42:58;11.00;99.90
28725;DHT22;43472;48.980;9.646;2023-11-21T03:48:00;12.30;99.90
28725;DHT22;43472;48.980;9.646;2023-11-21T03:53:03;10.50;99.90
28725;DHT22;43472;48.980;9.646;2023-11-21T03:58:05;13.40;99.90
28725;DHT22;43472;48.980;9.646;2023-11-21T04:03:07;10.20;99.90
28725;DHT22;43472;48.980;9.646;2023-11-21T04:08:09;10.20;99.90
28725;DHT22;43472;48.980;9.646;2023-11-21T04:13:11;10.60;99.90
28725;DHT22;43472;48.980;9.646;2023-11-21T04:18:12;10.10;99.90
28725;DHT22;43472;48.980;9.646;2023-11-21T04:23:14;10.20;99.90
28725;DHT22;43472;48.980;9.646;2023-11-21T04:28:16;10.20;99.90
28725;DHT22;43472;48.980;9.646;2023-11-21T04:33:18;10.30;99.90
28725;DHT22;43472;48.980;9.646;2023-11-21T04:38:20;10.20;99.90
28725;DHT22;43472;48.980;9.646;2023-11-21T04:43:22;10.20;99.90
28725;DHT22;43472;48.980;9.646;2023-11-21T04:48:24;10.20;99.90
28725;DHT22;43472;48.980;9.646;2023-11-21T04:53:26;10.20;99.90
28725;DHT22;43472;48.980;9.646;2023-11-21T04:58:28;10.20;99.90
28725;DHT22;43472;48.980;9.646;2023-11-21T05:03:30;10.20;99.90
28725;DHT22;43472;48.980;9.646;2023-11-21T05:13:34;10.20;99.90
28725;DHT22;43472;48.980;9.646;2023-11-21T05:18:36;10.20;99.90
28725;DHT22;43472;48.980;9.646;2023-11-21T05:23:38;10.20;99.90
28725;DHT22;43472;48.980;9.646;2023-11-21T05:28:39;10.90;99.90
28725;DHT22;43472;48.980;9.646;2023-11-21T05:33:41;10.20;99.90
28725;DHT22;43472;48.980;9.646;2023-11-21T05:38:43;10.20;99.90
28725;DHT22;43472;48.980;9.646;2023-11-21T05:43:45;10.20;99.90
28725;DHT22;43472;48.980;9.646;2023-11-21T05:48:47;10.20;99.90
28725;DHT22;43472;48.980;9.646;2023-11-21T05:53:49;10.20;99.90
28725;DHT22;43472;48.980;9.646;2023-11-21T05:58:51;12.20;99.90
28725;DHT22;43472;48.980;9.646;2023-11-21T06:03:54;10.20;99.90
28725;DHT22;43472;48.980;9.646;2023-11-21T06:08:57;11.30;99.90
28725;DHT22;43472;48.980;9.646;2023-11-21T06:13:59;12.10;99.90
28725;DHT22;43472;48.980;9.646;2023-11-21T06:19:00;10.10;99.90
28725;DHT22;43472;48.980;9.646;2023-11-21T06:24:03;10.10;99.90
28725;DHT22;43472;48.980;9.646;2023-11-21T06:29:05;10.20;99.90
28725;DHT22;43472;48.980;9.646;2023-11-21T06:34:06;10.20;99.90
28725;DHT22;43472;48.980;9.646;2023-11-21T06:44:12;10.20;99.90
28725;DHT22;43472;48.980;9.646;2023-11-21T06:49:15;10.20;99.90
28725;DHT22;43472;48.980;9.646;2023-11-21T06:54:18;10.20;99.90
28725;DHT22;43472;48.980;9.646;2023-11-21T06:59:20;11.90;99.90
28725;DHT22;43472;48.980;9.646;2023-11-21T07:04:21;10.20;99.90
28725;DHT22;43472;48.980;9.646;2023-11-21T07:09:23;10.60;99.90
28725;DHT22;43472;48.980;9.646;2023-11-21T07:14:27;10.30;99.90
28725;DHT22;43472;48.980;9.646;2023-11-21T07:19:29;10.30;99.90
28725;DHT22;43472;48.980;9.646;2023-11-21T07:24:32;10.40;99.90
28725;DHT22;43472;48.980;9.646;2023-11-21T07:29:34;10.40;99.90
28725;DHT22;43472;48.980;9.646;2023-11-21T07:34:36;10.30;99.90
28725;DHT22;43472;48.980;9.646;2023-11-21T07:39:39;10.30;99.90
28725;DHT22;43472;48.980;9.646;2023-11-21T07:44:44;10.30;99.90
28725;DHT22;43472;48.980;9.646;2023-11-21T07:49:48;10.40;99.90
28725;DHT22;43472;48.980;9.646;2023-11-21T07:54:49;10.40;99.90
28725;DHT22;43472;48.980;9.646;2023-11-21T07:59:52;10.40;99.90
28725;DHT22;43472;48.980;9.646;2023-11-21T08:04:55;11.00;99.90
28725;DHT22;43472;48.980;9.646;2023-11-21T08:09:58;10.50;99.90
28725;DHT22;43472;48.980;9.646;2023-11-21T08:15:00;10.50;99.90
28725;DHT22;43472;48.980;9.646;2023-11-21T08:20:04;10.60;99.90
28725;DHT22;43472;48.980;9.646;2023-11-21T08:25:07;10.30;99.90
28725;DHT22;43472;48.980;9.646;2023-11-21T08:30:09;10.50;99.90
28725;DHT22;43472;48.980;9.646;2023-11-21T08:35:11;10.70;99.90
28725;DHT22;43472;48.980;9.646;2023-11-21T08:40:14;10.70;99.90
28725;DHT22;43472;48.980;9.646;2023-11-21T08:45:19;10.80;99.90
28725;DHT22;43472;48.980;9.646;2023-11-21T08:50:21;10.70;99.90
28725;DHT22;43472;48.980;9.646;2023-11-21T08:55:23;10.80;99.90
28725;DHT22;43472;48.980;9.646;2023-11-21T09:00:25;9.60;99.90
28725;DHT22;43472;48.980;9.646;2023-11-21T09:05:27;10.80;99.90
28725;DHT22;43472;48.980;9.646;2023-11-21T09:10:28;11.60;99.90
28725;DHT22;43472;48.980;9.646;2023-11-21T09:15:30;10.80;99.90
28725;DHT22;43472;48.980;9.646;2023-11-21T09:20:32;11.70;99.90
28725;DHT22;43472;48.980;9.646;2023-11-21T09:25:34;10.80;99.90
28725;DHT22;43472;48.980;9.646;2023-11-21T09:30:36;10.80;99.90
28725;DHT22;43472;48.980;9.646;2023-11-21T09:35:38;10.90;99.90
28725;DHT22;43472;48.980;9.646;2023-11-21T09:40:40;11.30;99.90
28725;DHT22;43472;48.980;9.646;2023-11-21T09:45:47;11.80;99.90
28725;DHT22;43472;48.980;9.646;2023-11-21T09:50:50;11.70;99.90
28725;DHT22;43472;48.980;9.646;2023-11-21T09:55:55;11.80;99.90
28725;DHT22;43472;48.980;9.646;2023-11-21T10:00:59;11.10;99.90
28725;DHT22;43472;48.980;9.646;2023-11-21T10:06:01;11.10;99.90
28725;DHT22;43472;48.980;9.646;2023-11-21T10:11:05;11.20;99.90
28725;DHT22;43472;48.980;9.646;2023-11-21T10:16:09;11.30;99.90
28725;DHT22;43472;48.980;9.646;2023-11-21T10:21:14;11.40;99.90
28725;DHT22;43472;48.980;9.646;2023-11-21T10:26:16;11.60;99.90
28725;DHT22;43472;48.980;9.646;2023-11-21T10:31:32;11.20;99.90
28725;DHT22;43472;48.980;9.646;2023-11-21T10:36:35;11.10;99.90
28725;DHT22;43472;48.980;9.646;2023-11-21T10:41:38;11.00;99.90
28725;DHT22;43472;48.980;9.646;2023-11-21T10:46:40;11.30;99.90
28725;DHT22;43472;48.980;9.646;2023-11-21T10:51:44;11.30;99.90
28725;DHT22;43472;48.980;9.646;2023-11-21T10:56:49;14.10;99.90
28725;DHT22;43472;48.980;9.646;2023-11-21T11:01:53;11.30;99.90
28725;DHT22;43472;48.980;9.646;2023-11-21T11:07:02;12.60;99.90
28725;DHT22;43472;48.980;9.646;2023-11-21T11:12:07;11.50;99.90
28725;DHT22;43472;48.980;9.646;2023-11-21T11:17:11;13.80;99.90
28725;DHT22;43472;48.980;9.646;2023-11-21T11:22:37;12.60;99.90
28725;DHT22;43472;48.980;9.646;2023-11-21T11:38:32;14.90;99.90
28725;DHT22;43472;48.980;9.646;2023-11-21T11:43:38;13.70;99.90
28725;DHT22;43472;48.980;9.646;2023-11-21T11:48:46;12.90;99.90
28725;DHT22;43472;48.980;9.646;2023-11-21T11:53:48;12.40;99.90
28725;DHT22;43472;48.980;9.646;2023-11-21T11:58:54;11.90;99.90
28725;DHT22;43472;48.980;9.646;2023-11-21T12:09:20;11.70;99.90
28725;DHT22;43472;48.980;9.646;2023-11-21T12:14:23;11.60;99.90
28725;DHT22;43472;48.980;9.646;2023-11-21T12:19:25;11.60;99.90
28725;DHT22;43472;48.980;9.646;2023-11-21T12:24:28;11.90;99.90
28725;DHT22;43472;48.980;9.646;2023-11-21T12:29:31;12.40;99.90
28725;DHT22;43472;48.980;9.646;2023-11-21T12:34:34;12.50;99.90
28725;DHT22;43472;48.980;9.646;2023-11-21T12:39:36;12.70;99.90
28725;DHT22;43472;48.980;9.646;2023-11-21T12:44:39;13.10;99.90
28725;DHT22;43472;48.980;9.646;2023-11-21T12:49:43;13.30;99.90
28725;DHT22;43472;48.980;9.646;2023-11-21T12:54:46;12.60;99.90
28725;DHT22;43472;48.980;9.646;2023-11-21T12:59:51;12.00;99.90
28725;DHT22;43472;48.980;9.646;2023-11-21T13:04:57;11.80;99.90
28725;DHT22;43472;48.980;9.646;2023-11-21T13:10:00;11.30;99.90
28725;DHT22;43472;48.980;9.646;2023-11-21T13:15:05;11.50;99.90
28725;DHT22;43472;48.980;9.646;2023-11-21T13:20:08;11.30;99.90
28725;DHT22;43472;48.980;9.646;2023-11-21T13:25:17;10.90;99.90
28725;DHT22;43472;48.980;9.646;2023-11-21T13:30:23;11.10;99.90
28725;DHT22;43472;48.980;9.646;2023-11-21T13:35:28;12.30;99.90
28725;DHT22;43472;48.980;9.646;2023-11-21T13:40:51;11.00;99.90
28725;DHT22;43472;48.980;9.646;2023-11-21T13:45:55;11.00;99.90
28725;DHT22;43472;48.980;9.646;2023-11-21T13:51:09;12.00;99.90
28725;DHT22;43472;48.980;9.646;2023-11-21T13:56:20;11.10;99.90
28725;DHT22;43472;48.980;9.646;2023-11-21T14:01:26;11.10;99.90
28725;DHT22;43472;48.980;9.646;2023-11-21T14:06:31;11.10;99.90
28725;DHT22;43472;48.980;9.646;2023-11-21T14:11:41;11.10;99.90
28725;DHT22;43472;48.980;9.646;2023-11-21T14:16:49;11.10;99.90
28725;DHT22;43472;48.980;9.646;2023-11-21T14:21:51;11.20;99.90
28725;DHT22;43472;48.980;9.646;2023-11-21T14:26:54;11.30;99.90
28725;DHT22;43472;48.980;9.646;2023-11-21T14:31:56;11.10;99.90
28725;DHT22;43472;48.980;9.646;2023-11-21T14:36:59;11.10;99.90
28725;DHT22;43472;48.980;9.646;2023-11-21T14:42:04;11.00;99.90
28725;DHT22;43472;48.980;9.646;2023-11-21T14:47:06;11.10;99.90
28725;DHT22;43472;48.980;9.646;2023-11-21T14:52:16;11.00;99.90
28725;DHT22;43472;48.980;9.646;2023-11-21T14:57:35;10.80;99.90
28725;DHT22;43472;48.980;9.646;2023-11-21T15:02:37;10.70;99.90
28725;DHT22;43472;48.980;9.646;2023-11-21T15:07:51;10.70;99.90
28725;DHT22;43472;48.980;9.646;2023-11-21T15:12:57;10.70;99.90
28725;DHT22;43472;48.980;9.646;2023-11-21T15:17:59;10.60;99.90
28725;DHT22;43472;48.980;9.646;2023-11-21T15:23:01;10.40;99.90
28725;DHT22;43472;48.980;9.646;2023-11-21T15:28:05;10.30;99.90
28725;DHT22;43472;48.980;9.646;2023-11-21T15:33:07;10.20;99.90
28725;DHT22;43472;48.980;9.646;2023-11-21T15:38:10;10.20;99.90
28725;DHT22;43472;48.980;9.646;2023-11-21T15:43:12;11.50;99.90
28725;DHT22;43472;48.980;9.646;2023-11-21T15:48:14;10.20;99.90
28725;DHT22;43472;48.980;9.646;2023-11-21T15:53:18;10.20;99.90
28725;DHT22;43472;48.980;9.646;2023-11-21T15:58:20;10.10;99.90
28725;DHT22;43472;48.980;9.646;2023-11-21T16:03:21;10.00;99.90
28725;DHT22;43472;48.980;9.646;2023-11-21T16:08:23;11.30;99.90
28725;DHT22;43472;48.980;9.646;2023-11-21T16:13:25;9.60;99.90
28725;DHT22;43472;48.980;9.646;2023-11-21T16:18:27;9.00;99.90
28725;DHT22;43472;48.980;9.646;2023-11-21T16:23:29;9.20;99.90
28725;DHT22;43472;48.980;9.646;2023-11-21T16:28:33;9.10;99.90
28725;DHT22;43472;48.980;9.646;2023-11-21T16:33:34;10.30;99.90
28725;DHT22;43472;48.980;9.646;2023-11-21T16:38:36;9.00;99.90
28725;DHT22;43472;48.980;9.646;2023-11-21T16:43:38;7.90;99.90
28725;DHT22;43472;48.980;9.646;2023-11-21T16:48:40;9.00;99.90
28725;DHT22;43472;48.980;9.646;2023-11-21T16:53:42;9.10;99.90
28725;DHT22;43472;48.980;9.646;2023-11-21T16:58:44;9.20;99.90
28725;DHT22;43472;48.980;9.646;2023-11-21T17:03:46;9.20;99.90
28725;DHT22;43472;48.980;9.646;2023-11-21T17:08:50;9.20;99.90
28725;DHT22;43472;48.980;9.646;2023-11-21T17:13:52;9.30;99.90
28725;DHT22;43472;48.980;9.646;2023-11-21T17:18:54;9.30;99.90
28725;DHT22;43472;48.980;9.646;2023-11-21T17:23:57;9.20;99.90
28725;DHT22;43472;48.980;9.646;2023-11-21T17:28:58;9.40;99.90
28725;DHT22;43472;48.980;9.646;2023-11-21T17:34:01;9.40;99.90
28725;DHT22;43472;48.980;9.646;2023-11-21T17:39:02;9.30;99.90
28725;DHT22;43472;48.980;9.646;2023-11-21T17:44:08;9.30;99.90
28725;DHT22;43472;48.980;9.646;2023-11-21T17:49:11;9.20;99.90
28725;DHT22;43472;48.980;9.646;2023-11-21T17:54:13;9.20;99.90
28725;DHT22;43472;48.980;9.646;2023-11-21T17:59:15;9.20;99.90
28725;DHT22;43472;48.980;9.646;2023-11-21T18:04:18;9.20;99.90
28725;DHT22;43472;48.980;9.646;2023-11-21T18:09:21;9.10;99.90
28725;DHT22;43472;48.980;9.646;2023-11-21T18:14:22;10.90;99.90
28725;DHT22;43472;48.980;9.646;2023-11-21T18:19:24;9.20;99.90
28725;DHT22;43472;48.980;9.646;2023-11-21T18:24:26;9.20;99.90
28725;DHT22;43472;48.980;9.646;2023-11-21T18:29:28;9.10;99.90
28725;DHT22;43472;48.980;9.646;2023-11-21T18:34:30;9.20;99.90
28725;DHT22;43472;48.980;9.646;2023-11-21T18:39:32;9.20;99.90
28725;DHT22;43472;48.980;9.646;2023-11-21T18:44:35;9.20;99.90
28725;DHT22;43472;48.980;9.646;2023-11-21T18:49:55;9.30;99.90
28725;DHT22;43472;48.980;9.646;2023-11-21T18:54:57;9.30;99.90
28725;DHT22;43472;48.980;9.646;2023-11-21T18:59:59;9.20;99.90
28725;DHT22;43472;48.980;9.646;2023-11-21T19:05:01;9.20;99.90
28725;DHT22;43472;48.980;9.646;2023-11-21T19:10:07;9.00;99.90
28725;DHT22;43472;48.980;9.646;2023-11-21T19:15:11;9.20;99.90
28725;DHT22;43472;48.980;9.646;2023-11-21T19:20:15;9.30;99.90
28725;DHT22;43472;48.980;9.646;2023-11-21T19:25:19;9.30;99.90
28725;DHT22;43472;48.980;9.646;2023-11-21T19:30:20;9.30;99.90
28725;DHT22;43472;48.980;9.646;2023-11-21T19:35:22;9.40;99.90
28725;DHT22;43472;48.980;9.646;2023-11-21T19:40:24;10.80;99.90
28725;DHT22;43472;48.980;9.646;2023-11-21T19:45:26;9.30;99.90
28725;DHT22;43472;48.980;9.646;2023-11-21T19:50:37;9.30;99.90
28725;DHT22;43472;48.980;9.646;2023-11-21T19:55:38;9.30;99.90
28725;DHT22;43472;48.980;9.646;2023-11-21T20:00:40;9.40;99.90
28725;DHT22;43472;48.980;9.646;2023-11-21T20:05:42;11.30;99.90
28725;DHT22;43472;48.980;9.646;2023-11-21T20:10:44;9.40;99.90
28725;DHT22;43472;48.980;9.646;2023-11-21T20:15:47;9.30;99.90
28725;DHT22;43472;48.980;9.646;2023-11-21T20:20:50;9.30;99.90
28725;DHT22;43472;48.980;9.646;2023-11-21T20:25:52;9.40;99.90
28725;DHT22;43472;48.980;9.646;2023-11-21T20:30:59;9.30;99.90
28725;DHT22;43472;48.980;9.646;2023-11-21T20:36:01;9.30;99.90
28725;DHT22;43472;48.980;9.646;2023-11-21T20:41:03;9.30;99.90
28725;DHT22;43472;48.980;9.646;2023-11-21T20:46:06;9.20;99.90
28725;DHT22;43472;48.980;9.646;2023-11-21T20:51:08;9.20;99.90
28725;DHT22;43472;48.980;9.646;2023-11-21T20:56:10;9.30;99.90
28725;DHT22;43472;48.980;9.646;2023-11-21T21:01:12;9.30;99.90
28725;DHT22;43472;48.980;9.646;2023-11-21T21:16:24;9.30;99.90
28725;DHT22;43472;48.980;9.646;2023-11-21T21:29:18;9.20;99.90
28725;DHT22;43472;48.980;9.646;2023-11-21T21:34:23;9.20;99.90
28725;DHT22;43472;48.980;9.646;2023-11-21T21:39:27;9.50;99.90
28725;DHT22;43472;48.980;9.646;2023-11-21T21:44:30;9.30;99.90
28725;DHT22;43472;48.980;9.646;2023-11-21T21:49:33;9.30;99.90
28725;DHT22;43472;48.980;9.646;2023-11-21T21:54:35;9.40;99.90
28725;DHT22;43472;48.980;9.646;2023-11-21T21:59:37;9.40;99.90
28725;DHT22;43472;48.980;9.646;2023-11-21T22:04:39;9.30;99.90
28725;DHT22;43472;48.980;9.646;2023-11-21T22:09:41;9.30;99.90
28725;DHT22;43472;48.980;9.646;2023-11-21T22:14:43;9.40;99.90
28725;DHT22;43472;48.980;9.646;2023-11-21T22:19:45;9.40;99.90
28725;DHT22;43472;48.980;9.646;2023-11-21T22:24:50;11.60;99.90
28725;DHT22;43472;48.980;9.646;2023-11-21T22:29:52;9.50;99.90
28725;DHT22;43472;48.980;9.646;2023-11-21T22:34:58;9.40;99.90
28725;DHT22;43472;48.980;9.646;2023-11-21T22:40:00;9.40;99.90
28725;DHT22;43472;48.980;9.646;2023-11-21T22:45:04;9.50;99.90
28725;DHT22;43472;48.980;9.646;2023-11-21T22:50:07;9.60;99.90
28725;DHT22;43472;48.980;9.646;2023-11-21T22:55:09;9.40;99.90
28725;DHT22;43472;48.980;9.646;2023-11-21T23:00:13;9.20;99.90
28725;DHT22;43472;48.980;9.646;2023-11-21T23:05:18;9.10;99.90
28725;DHT22;43472;48.980;9.646;2023-11-21T23:10:20;8.90;99.90
28725;DHT22;43472;48.980;9.646;2023-11-21T23:15:25;8.80;99.90
28725;DHT22;43472;48.980;9.646;2023-11-21T23:20:27;8.70;99.90
28725;DHT22;43472;48.980;9.646;2023-11-21T23:25:31;8.50;99.90
28725;DHT22;43472;48.980;9.646;2023-11-21T23:30:33;8.40;99.90
28725;DHT22;43472;48.980;9.646;2023-11-21T23:35:35;8.40;99.90
28725;DHT22;43472;48.980;9.646;2023-11-21T23:40:37;8.40;99.90
28725;DHT22;43472;48.980;9.646;2023-11-21T23:45:39;8.00;99.90
28725;DHT22;43472;48.980;9.646;2023-11-21T23:50:41;8.20;99.90
28725;DHT22;43472;48.980;9.646;2023-11-21T23:55:44;8.30;99.90
